TW-0022 weather

Taichung Veterans’ General Hospital Helipad
Taichung, Taichung (city), Taiwan

Public forecast

Using degrees Celsius for public forecast. Weather courtesy of forecast.io.

Closest aviation weather report (METAR) to Taichung Veterans’ General Hospital Helipad

Closest report is Taichung Ching Chuang Kang Airport, 4.9 nm (9.1 km) NNE. Retrieved 2020/04/09 22:00 UTC (6 minutes ago):

RCMQ 092200Z 00000KT 9999 FEW012 BKN040 18/15 Q1018 NOSIG RMK A3007

Closest aviation forecast (TAF) to Taichung Veterans’ General Hospital Helipad

Closest forecast is Taichung Ching Chuang Kang Airport, 4.9 nm (9.1 km) NNE. Retrieved 2020/04/09 18:21 UTC (4 hours ago):

TAF RCMQ 091700Z 0918/1018 01004KT 9999 FEW012 TX26/1005Z TN16/0921Z TEMPO 0918/0923 7000 FEW010 BKN060 BECMG 1001/1004 02010KT FEW010 SCT060 BECMG 1012/1015 02004KT